sensor_id;sensor_type;location;lat;lon;timestamp;P1;durP1;ratioP1;P2;durP2;ratioP2
8349;SDS011;60699;48.946;8.412;2022-08-30T00:01:58;2.80;;;2.50;;
8349;SDS011;60699;48.946;8.412;2022-08-30T00:04:26;4.30;;;2.53;;
8349;SDS011;60699;48.946;8.412;2022-08-30T00:06:54;3.77;;;3.37;;
8349;SDS011;60699;48.946;8.412;2022-08-30T00:09:21;5.90;;;3.73;;
8349;SDS011;60699;48.946;8.412;2022-08-30T00:11:48;4.63;;;3.27;;
8349;SDS011;60699;48.946;8.412;2022-08-30T00:14:16;4.80;;;2.70;;
8349;SDS011;60699;48.946;8.412;2022-08-30T00:16:44;8.50;;;3.30;;
8349;SDS011;60699;48.946;8.412;2022-08-30T00:19:11;4.20;;;3.40;;
8349;SDS011;60699;48.946;8.412;2022-08-30T00:21:39;3.13;;;2.83;;
8349;SDS011;60699;48.946;8.412;2022-08-30T00:24:06;3.33;;;2.73;;
8349;SDS011;60699;48.946;8.412;2022-08-30T00:26:33;3.27;;;2.97;;
8349;SDS011;60699;48.946;8.412;2022-08-30T00:29:00;3.60;;;3.07;;
8349;SDS011;60699;48.946;8.412;2022-08-30T00:31:27;3.13;;;2.80;;
8349;SDS011;60699;48.946;8.412;2022-08-30T00:33:54;3.20;;;2.90;;
8349;SDS011;60699;48.946;8.412;2022-08-30T00:36:21;2.80;;;2.40;;
8349;SDS011;60699;48.946;8.412;2022-08-30T00:38:50;4.20;;;3.27;;
8349;SDS011;60699;48.946;8.412;2022-08-30T00:41:17;4.50;;;3.00;;
8349;SDS011;60699;48.946;8.412;2022-08-30T00:43:44;3.90;;;3.13;;
8349;SDS011;60699;48.946;8.412;2022-08-30T00:46:11;4.40;;;3.00;;
8349;SDS011;60699;48.946;8.412;2022-08-30T00:48:40;3.07;;;2.83;;
8349;SDS011;60699;48.946;8.412;2022-08-30T00:51:09;2.90;;;2.70;;
8349;SDS011;60699;48.946;8.412;2022-08-30T00:53:37;2.60;;;2.40;;
8349;SDS011;60699;48.946;8.412;2022-08-30T00:56:07;6.10;;;3.37;;
8349;SDS011;60699;48.946;8.412;2022-08-30T00:58:34;4.00;;;3.70;;
8349;SDS011;60699;48.946;8.412;2022-08-30T01:01:03;4.00;;;3.70;;
8349;SDS011;60699;48.946;8.412;2022-08-30T01:03:31;4.73;;;3.20;;
8349;SDS011;60699;48.946;8.412;2022-08-30T01:05:59;4.53;;;3.17;;
8349;SDS011;60699;48.946;8.412;2022-08-30T01:08:26;3.37;;;3.00;;
8349;SDS011;60699;48.946;8.412;2022-08-30T01:10:53;3.40;;;3.00;;
8349;SDS011;60699;48.946;8.412;2022-08-30T01:13:23;3.20;;;3.00;;
8349;SDS011;60699;48.946;8.412;2022-08-30T01:15:51;4.60;;;3.23;;
8349;SDS011;60699;48.946;8.412;2022-08-30T01:18:18;3.60;;;3.30;;
8349;SDS011;60699;48.946;8.412;2022-08-30T01:20:46;3.10;;;2.80;;
8349;SDS011;60699;48.946;8.412;2022-08-30T01:23:16;3.40;;;3.03;;
8349;SDS011;60699;48.946;8.412;2022-08-30T01:25:46;4.97;;;2.97;;
8349;SDS011;60699;48.946;8.412;2022-08-30T01:28:15;4.73;;;2.93;;
8349;SDS011;60699;48.946;8.412;2022-08-30T01:30:42;3.60;;;3.30;;
8349;SDS011;60699;48.946;8.412;2022-08-30T01:33:10;3.20;;;2.90;;
8349;SDS011;60699;48.946;8.412;2022-08-30T01:35:38;4.67;;;3.67;;
8349;SDS011;60699;48.946;8.412;2022-08-30T01:38:08;3.40;;;2.80;;
8349;SDS011;60699;48.946;8.412;2022-08-30T01:40:38;4.63;;;3.30;;
8349;SDS011;60699;48.946;8.412;2022-08-30T01:43:05;2.87;;;2.67;;
8349;SDS011;60699;48.946;8.412;2022-08-30T01:45:32;8.80;;;3.30;;
8349;SDS011;60699;48.946;8.412;2022-08-30T01:47:59;3.70;;;3.30;;
8349;SDS011;60699;48.946;8.412;2022-08-30T01:50:26;6.30;;;2.83;;
8349;SDS011;60699;48.946;8.412;2022-08-30T01:52:53;3.53;;;3.23;;
8349;SDS011;60699;48.946;8.412;2022-08-30T01:55:20;6.40;;;3.17;;
8349;SDS011;60699;48.946;8.412;2022-08-30T01:57:49;4.53;;;3.07;;
8349;SDS011;60699;48.946;8.412;2022-08-30T02:00:16;4.03;;;3.70;;
8349;SDS011;60699;48.946;8.412;2022-08-30T02:02:43;3.60;;;3.30;;
8349;SDS011;60699;48.946;8.412;2022-08-30T02:05:10;3.93;;;2.87;;
8349;SDS011;60699;48.946;8.412;2022-08-30T02:07:37;3.67;;;3.33;;
8349;SDS011;60699;48.946;8.412;2022-08-30T02:10:04;4.60;;;3.07;;
8349;SDS011;60699;48.946;8.412;2022-08-30T02:12:32;6.17;;;3.50;;
8349;SDS011;60699;48.946;8.412;2022-08-30T02:15:00;3.40;;;3.10;;
8349;SDS011;60699;48.946;8.412;2022-08-30T02:17:27;3.57;;;3.27;;
8349;SDS011;60699;48.946;8.412;2022-08-30T02:19:54;3.00;;;2.80;;
8349;SDS011;60699;48.946;8.412;2022-08-30T02:22:21;3.57;;;3.27;;
8349;SDS011;60699;48.946;8.412;2022-08-30T02:24:48;10.40;;;3.33;;
8349;SDS011;60699;48.946;8.412;2022-08-30T02:27:15;4.40;;;3.47;;
8349;SDS011;60699;48.946;8.412;2022-08-30T02:29:42;6.67;;;3.67;;
8349;SDS011;60699;48.946;8.412;2022-08-30T02:32:10;4.13;;;3.73;;
8349;SDS011;60699;48.946;8.412;2022-08-30T02:34:37;4.47;;;3.63;;
8349;SDS011;60699;48.946;8.412;2022-08-30T02:37:04;4.20;;;3.40;;
8349;SDS011;60699;48.946;8.412;2022-08-30T02:39:33;5.43;;;4.43;;
8349;SDS011;60699;48.946;8.412;2022-08-30T02:42:00;6.37;;;3.57;;
8349;SDS011;60699;48.946;8.412;2022-08-30T02:44:27;5.07;;;3.80;;
8349;SDS011;60699;48.946;8.412;2022-08-30T02:46:54;3.83;;;3.40;;
8349;SDS011;60699;48.946;8.412;2022-08-30T02:49:22;3.67;;;3.37;;
8349;SDS011;60699;48.946;8.412;2022-08-30T02:51:50;3.17;;;2.97;;
8349;SDS011;60699;48.946;8.412;2022-08-30T02:54:17;6.33;;;4.50;;
8349;SDS011;60699;48.946;8.412;2022-08-30T02:56:44;3.93;;;3.63;;
8349;SDS011;60699;48.946;8.412;2022-08-30T02:59:12;4.57;;;3.67;;
8349;SDS011;60699;48.946;8.412;2022-08-30T03:01:39;4.37;;;3.90;;
8349;SDS011;60699;48.946;8.412;2022-08-30T03:04:06;6.97;;;3.40;;
8349;SDS011;60699;48.946;8.412;2022-08-30T03:06:35;5.80;;;4.17;;
8349;SDS011;60699;48.946;8.412;2022-08-30T03:09:02;4.00;;;3.70;;
8349;SDS011;60699;48.946;8.412;2022-08-30T03:11:29;6.20;;;3.93;;
8349;SDS011;60699;48.946;8.412;2022-08-30T03:13:57;4.60;;;3.40;;
8349;SDS011;60699;48.946;8.412;2022-08-30T03:16:24;6.30;;;4.00;;
8349;SDS011;60699;48.946;8.412;2022-08-30T03:18:51;4.57;;;3.50;;
8349;SDS011;60699;48.946;8.412;2022-08-30T03:21:18;4.20;;;3.50;;
8349;SDS011;60699;48.946;8.412;2022-08-30T03:23:47;4.00;;;3.70;;
8349;SDS011;60699;48.946;8.412;2022-08-30T03:26:14;4.73;;;4.33;;
8349;SDS011;60699;48.946;8.412;2022-08-30T03:28:41;4.50;;;3.87;;
8349;SDS011;60699;48.946;8.412;2022-08-30T03:31:08;7.03;;;4.27;;
8349;SDS011;60699;48.946;8.412;2022-08-30T03:33:36;6.93;;;4.07;;
8349;SDS011;60699;48.946;8.412;2022-08-30T03:36:04;6.27;;;4.30;;
8349;SDS011;60699;48.946;8.412;2022-08-30T03:38:32;7.00;;;3.53;;
8349;SDS011;60699;48.946;8.412;2022-08-30T03:41:00;6.13;;;3.90;;
8349;SDS011;60699;48.946;8.412;2022-08-30T03:43:28;3.90;;;3.10;;
8349;SDS011;60699;48.946;8.412;2022-08-30T03:45:57;5.10;;;4.30;;
8349;SDS011;60699;48.946;8.412;2022-08-30T03:48:24;5.67;;;4.13;;
8349;SDS011;60699;48.946;8.412;2022-08-30T03:50:51;4.43;;;4.00;;
8349;SDS011;60699;48.946;8.412;2022-08-30T03:53:18;4.47;;;4.00;;
8349;SDS011;60699;48.946;8.412;2022-08-30T03:55:45;3.57;;;3.30;;
8349;SDS011;60699;48.946;8.412;2022-08-30T03:58:14;5.13;;;4.33;;
8349;SDS011;60699;48.946;8.412;2022-08-30T04:00:41;4.00;;;3.67;;
8349;SDS011;60699;48.946;8.412;2022-08-30T04:03:08;4.77;;;3.77;;
8349;SDS011;60699;48.946;8.412;2022-08-30T04:05:35;3.90;;;3.40;;
8349;SDS011;60699;48.946;8.412;2022-08-30T04:08:02;5.10;;;3.70;;
8349;SDS011;60699;48.946;8.412;2022-08-30T04:10:30;5.40;;;3.77;;
8349;SDS011;60699;48.946;8.412;2022-08-30T04:12:58;4.33;;;3.60;;
8349;SDS011;60699;48.946;8.412;2022-08-30T04:15:26;4.57;;;3.47;;
8349;SDS011;60699;48.946;8.412;2022-08-30T04:17:53;3.93;;;3.17;;
8349;SDS011;60699;48.946;8.412;2022-08-30T04:20:20;5.07;;;3.60;;
8349;SDS011;60699;48.946;8.412;2022-08-30T04:22:47;4.80;;;3.30;;
8349;SDS011;60699;48.946;8.412;2022-08-30T04:25:14;3.63;;;3.30;;
8349;SDS011;60699;48.946;8.412;2022-08-30T04:27:42;3.97;;;3.57;;
8349;SDS011;60699;48.946;8.412;2022-08-30T04:30:09;4.23;;;3.43;;
8349;SDS011;60699;48.946;8.412;2022-08-30T04:32:38;7.73;;;3.93;;
8349;SDS011;60699;48.946;8.412;2022-08-30T04:35:05;4.70;;;3.83;;
8349;SDS011;60699;48.946;8.412;2022-08-30T04:37:33;4.30;;;3.70;;
8349;SDS011;60699;48.946;8.412;2022-08-30T04:40:00;5.37;;;4.33;;
8349;SDS011;60699;48.946;8.412;2022-08-30T04:42:29;6.00;;;3.70;;
8349;SDS011;60699;48.946;8.412;2022-08-30T04:44:56;4.00;;;3.70;;
8349;SDS011;60699;48.946;8.412;2022-08-30T04:47:24;6.50;;;4.10;;
8349;SDS011;60699;48.946;8.412;2022-08-30T04:49:52;5.30;;;4.10;;
8349;SDS011;60699;48.946;8.412;2022-08-30T04:52:19;11.20;;;4.03;;
8349;SDS011;60699;48.946;8.412;2022-08-30T04:54:47;5.77;;;5.27;;
8349;SDS011;60699;48.946;8.412;2022-08-30T04:57:14;6.07;;;4.07;;
8349;SDS011;60699;48.946;8.412;2022-08-30T04:59:41;5.20;;;4.57;;
8349;SDS011;60699;48.946;8.412;2022-08-30T05:02:08;4.50;;;4.10;;
8349;SDS011;60699;48.946;8.412;2022-08-30T05:04:35;5.63;;;3.87;;
8349;SDS011;60699;48.946;8.412;2022-08-30T05:07:24;5.57;;;3.87;;
8349;SDS011;60699;48.946;8.412;2022-08-30T05:09:51;4.17;;;3.87;;
8349;SDS011;60699;48.946;8.412;2022-08-30T05:12:18;4.70;;;4.27;;
8349;SDS011;60699;48.946;8.412;2022-08-30T05:14:45;4.43;;;4.03;;
8349;SDS011;60699;48.946;8.412;2022-08-30T05:17:12;5.47;;;4.37;;
8349;SDS011;60699;48.946;8.412;2022-08-30T05:19:39;4.60;;;3.97;;
8349;SDS011;60699;48.946;8.412;2022-08-30T05:22:06;6.00;;;3.87;;
8349;SDS011;60699;48.946;8.412;2022-08-30T05:24:35;4.43;;;4.03;;
8349;SDS011;60699;48.946;8.412;2022-08-30T05:27:02;3.83;;;3.50;;
8349;SDS011;60699;48.946;8.412;2022-08-30T05:29:29;4.60;;;3.93;;
8349;SDS011;60699;48.946;8.412;2022-08-30T05:31:57;5.80;;;3.30;;
8349;SDS011;60699;48.946;8.412;2022-08-30T05:34:24;4.27;;;3.53;;
8349;SDS011;60699;48.946;8.412;2022-08-30T05:36:52;4.13;;;3.73;;
8349;SDS011;60699;48.946;8.412;2022-08-30T05:39:19;6.30;;;4.20;;
8349;SDS011;60699;48.946;8.412;2022-08-30T05:41:47;4.50;;;3.97;;
8349;SDS011;60699;48.946;8.412;2022-08-30T05:44:14;4.50;;;3.50;;
8349;SDS011;60699;48.946;8.412;2022-08-30T05:46:41;4.07;;;3.77;;
8349;SDS011;60699;48.946;8.412;2022-08-30T05:49:10;9.17;;;3.90;;
8349;SDS011;60699;48.946;8.412;2022-08-30T05:51:37;4.00;;;3.60;;
8349;SDS011;60699;48.946;8.412;2022-08-30T05:54:04;6.17;;;4.63;;
8349;SDS011;60699;48.946;8.412;2022-08-30T05:56:31;5.47;;;4.10;;
8349;SDS011;60699;48.946;8.412;2022-08-30T05:59:00;4.90;;;4.33;;
8349;SDS011;60699;48.946;8.412;2022-08-30T06:01:29;7.40;;;4.63;;
8349;SDS011;60699;48.946;8.412;2022-08-30T06:03:57;10.07;;;4.30;;
8349;SDS011;60699;48.946;8.412;2022-08-30T06:06:25;4.30;;;3.90;;
8349;SDS011;60699;48.946;8.412;2022-08-30T06:08:52;6.70;;;4.10;;
8349;SDS011;60699;48.946;8.412;2022-08-30T06:11:19;6.10;;;3.70;;
8349;SDS011;60699;48.946;8.412;2022-08-30T06:13:47;3.80;;;3.50;;
8349;SDS011;60699;48.946;8.412;2022-08-30T06:16:17;7.67;;;3.97;;
8349;SDS011;60699;48.946;8.412;2022-08-30T06:18:45;6.33;;;4.90;;
8349;SDS011;60699;48.946;8.412;2022-08-30T06:21:14;4.30;;;3.80;;
8349;SDS011;60699;48.946;8.412;2022-08-30T06:23:41;5.20;;;4.60;;
8349;SDS011;60699;48.946;8.412;2022-08-30T06:26:08;5.07;;;3.83;;
8349;SDS011;60699;48.946;8.412;2022-08-30T06:28:35;5.27;;;4.07;;
8349;SDS011;60699;48.946;8.412;2022-08-30T06:31:04;7.20;;;4.40;;
8349;SDS011;60699;48.946;8.412;2022-08-30T06:33:34;5.93;;;5.00;;
8349;SDS011;60699;48.946;8.412;2022-08-30T06:36:02;5.67;;;3.97;;
8349;SDS011;60699;48.946;8.412;2022-08-30T06:38:29;4.37;;;4.00;;
8349;SDS011;60699;48.946;8.412;2022-08-30T06:40:57;4.80;;;4.33;;
8349;SDS011;60699;48.946;8.412;2022-08-30T06:43:24;4.43;;;4.03;;
8349;SDS011;60699;48.946;8.412;2022-08-30T06:45:51;5.60;;;4.10;;
8349;SDS011;60699;48.946;8.412;2022-08-30T06:48:20;5.77;;;4.60;;
8349;SDS011;60699;48.946;8.412;2022-08-30T06:50:52;4.87;;;4.00;;
8349;SDS011;60699;48.946;8.412;2022-08-30T06:53:20;4.67;;;4.27;;
8349;SDS011;60699;48.946;8.412;2022-08-30T06:55:53;4.50;;;4.07;;
8349;SDS011;60699;48.946;8.412;2022-08-30T06:58:21;3.90;;;3.50;;
8349;SDS011;60699;48.946;8.412;2022-08-30T07:00:48;6.87;;;3.90;;
8349;SDS011;60699;48.946;8.412;2022-08-30T07:03:15;5.40;;;3.87;;
8349;SDS011;60699;48.946;8.412;2022-08-30T07:05:42;9.73;;;5.60;;
8349;SDS011;60699;48.946;8.412;2022-08-30T07:08:10;3.93;;;3.60;;
8349;SDS011;60699;48.946;8.412;2022-08-30T07:10:37;4.53;;;4.13;;
8349;SDS011;60699;48.946;8.412;2022-08-30T07:13:04;4.93;;;4.47;;
8349;SDS011;60699;48.946;8.412;2022-08-30T07:15:31;6.80;;;4.70;;
8349;SDS011;60699;48.946;8.412;2022-08-30T07:17:58;4.70;;;4.00;;
8349;SDS011;60699;48.946;8.412;2022-08-30T07:20:43;4.87;;;4.37;;
8349;SDS011;60699;48.946;8.412;2022-08-30T07:23:11;6.23;;;4.53;;
8349;SDS011;60699;48.946;8.412;2022-08-30T07:25:39;5.27;;;4.87;;
8349;SDS011;60699;48.946;8.412;2022-08-30T07:28:07;5.10;;;4.57;;
8349;SDS011;60699;48.946;8.412;2022-08-30T07:30:34;6.50;;;5.07;;
8349;SDS011;60699;48.946;8.412;2022-08-30T07:33:02;5.70;;;4.90;;
8349;SDS011;60699;48.946;8.412;2022-08-30T07:35:29;8.73;;;4.30;;
8349;SDS011;60699;48.946;8.412;2022-08-30T07:37:56;5.07;;;4.20;;
8349;SDS011;60699;48.946;8.412;2022-08-30T07:40:25;5.83;;;4.77;;
8349;SDS011;60699;48.946;8.412;2022-08-30T07:42:52;5.60;;;4.17;;
8349;SDS011;60699;48.946;8.412;2022-08-30T07:45:19;5.43;;;4.80;;
8349;SDS011;60699;48.946;8.412;2022-08-30T07:47:46;6.33;;;4.97;;
8349;SDS011;60699;48.946;8.412;2022-08-30T07:50:13;6.60;;;4.50;;
8349;SDS011;60699;48.946;8.412;2022-08-30T07:52:40;7.17;;;5.20;;
8349;SDS011;60699;48.946;8.412;2022-08-30T07:55:08;5.60;;;5.10;;
8349;SDS011;60699;48.946;8.412;2022-08-30T07:57:36;5.90;;;4.60;;
8349;SDS011;60699;48.946;8.412;2022-08-30T08:00:03;5.57;;;5.00;;
8349;SDS011;60699;48.946;8.412;2022-08-30T08:02:31;7.30;;;5.60;;
8349;SDS011;60699;48.946;8.412;2022-08-30T08:04:58;8.90;;;5.83;;
8349;SDS011;60699;48.946;8.412;2022-08-30T08:07:25;5.20;;;4.70;;
8349;SDS011;60699;48.946;8.412;2022-08-30T08:09:52;6.67;;;5.13;;
8349;SDS011;60699;48.946;8.412;2022-08-30T08:12:19;6.17;;;4.77;;
8349;SDS011;60699;48.946;8.412;2022-08-30T08:14:47;6.00;;;5.40;;
8349;SDS011;60699;48.946;8.412;2022-08-30T08:17:14;5.93;;;4.40;;
8349;SDS011;60699;48.946;8.412;2022-08-30T08:19:41;5.20;;;4.80;;
8349;SDS011;60699;48.946;8.412;2022-08-30T08:22:08;5.60;;;4.83;;
8349;SDS011;60699;48.946;8.412;2022-08-30T08:24:35;7.13;;;4.97;;
8349;SDS011;60699;48.946;8.412;2022-08-30T08:27:02;6.97;;;6.27;;
8349;SDS011;60699;48.946;8.412;2022-08-30T08:29:29;7.30;;;5.10;;
8349;SDS011;60699;48.946;8.412;2022-08-30T08:31:57;7.13;;;4.80;;
8349;SDS011;60699;48.946;8.412;2022-08-30T08:34:25;6.10;;;5.20;;
8349;SDS011;60699;48.946;8.412;2022-08-30T08:36:52;4.73;;;4.33;;
8349;SDS011;60699;48.946;8.412;2022-08-30T08:39:19;5.13;;;4.57;;
8349;SDS011;60699;48.946;8.412;2022-08-30T08:41:50;7.27;;;5.40;;
8349;SDS011;60699;48.946;8.412;2022-08-30T08:44:23;6.20;;;5.63;;
8349;SDS011;60699;48.946;8.412;2022-08-30T08:46:52;5.10;;;4.37;;
8349;SDS011;60699;48.946;8.412;2022-08-30T08:49:23;6.30;;;4.73;;
8349;SDS011;60699;48.946;8.412;2022-08-30T08:51:50;5.17;;;4.70;;
8349;SDS011;60699;48.946;8.412;2022-08-30T08:54:38;5.57;;;4.03;;
8349;SDS011;60699;48.946;8.412;2022-08-30T08:57:07;5.50;;;4.63;;
8349;SDS011;60699;48.946;8.412;2022-08-30T08:59:35;5.30;;;4.57;;
8349;SDS011;60699;48.946;8.412;2022-08-30T09:02:06;7.30;;;4.40;;
8349;SDS011;60699;48.946;8.412;2022-08-30T09:04:46;6.50;;;4.93;;
8349;SDS011;60699;48.946;8.412;2022-08-30T09:07:16;5.27;;;4.33;;
8349;SDS011;60699;48.946;8.412;2022-08-30T09:09:46;5.70;;;5.03;;
8349;SDS011;60699;48.946;8.412;2022-08-30T09:12:13;6.70;;;4.77;;
8349;SDS011;60699;48.946;8.412;2022-08-30T09:14:42;6.10;;;4.60;;
8349;SDS011;60699;48.946;8.412;2022-08-30T09:17:10;7.37;;;5.23;;
8349;SDS011;60699;48.946;8.412;2022-08-30T09:19:41;5.80;;;4.87;;
8349;SDS011;60699;48.946;8.412;2022-08-30T09:22:21;5.90;;;4.90;;
8349;SDS011;60699;48.946;8.412;2022-08-30T09:24:51;5.97;;;4.73;;
8349;SDS011;60699;48.946;8.412;2022-08-30T09:27:20;5.73;;;4.43;;
8349;SDS011;60699;48.946;8.412;2022-08-30T09:29:48;5.63;;;5.07;;
8349;SDS011;60699;48.946;8.412;2022-08-30T09:32:21;6.00;;;5.00;;
8349;SDS011;60699;48.946;8.412;2022-08-30T09:34:48;6.13;;;4.60;;
8349;SDS011;60699;48.946;8.412;2022-08-30T09:37:22;7.30;;;4.77;;
8349;SDS011;60699;48.946;8.412;2022-08-30T09:39:50;5.43;;;4.93;;
8349;SDS011;60699;48.946;8.412;2022-08-30T09:42:18;11.33;;;5.33;;
8349;SDS011;60699;48.946;8.412;2022-08-30T09:44:46;5.87;;;5.27;;
8349;SDS011;60699;48.946;8.412;2022-08-30T09:47:17;4.73;;;4.33;;
8349;SDS011;60699;48.946;8.412;2022-08-30T09:49:45;6.03;;;5.03;;
8349;SDS011;60699;48.946;8.412;2022-08-30T09:52:17;5.27;;;4.83;;
8349;SDS011;60699;48.946;8.412;2022-08-30T09:55:00;5.07;;;4.57;;
8349;SDS011;60699;48.946;8.412;2022-08-30T09:57:29;5.80;;;4.53;;
8349;SDS011;60699;48.946;8.412;2022-08-30T10:00:02;7.20;;;5.20;;
8349;SDS011;60699;48.946;8.412;2022-08-30T10:02:44;5.33;;;4.83;;
8349;SDS011;60699;48.946;8.412;2022-08-30T10:05:15;5.40;;;4.90;;
8349;SDS011;60699;48.946;8.412;2022-08-30T10:07:48;5.83;;;4.43;;
8349;SDS011;60699;48.946;8.412;2022-08-30T10:10:24;5.33;;;4.80;;
8349;SDS011;60699;48.946;8.412;2022-08-30T10:13:04;5.70;;;4.53;;
8349;SDS011;60699;48.946;8.412;2022-08-30T10:15:33;5.57;;;4.93;;
8349;SDS011;60699;48.946;8.412;2022-08-30T10:18:02;5.20;;;4.67;;
8349;SDS011;60699;48.946;8.412;2022-08-30T10:20:34;5.40;;;4.90;;
8349;SDS011;60699;48.946;8.412;2022-08-30T10:23:04;23.77;;;5.83;;
8349;SDS011;60699;48.946;8.412;2022-08-30T10:25:35;6.93;;;4.90;;
8349;SDS011;60699;48.946;8.412;2022-08-30T10:28:03;6.03;;;5.40;;
8349;SDS011;60699;48.946;8.412;2022-08-30T10:30:32;6.20;;;5.23;;
8349;SDS011;60699;48.946;8.412;2022-08-30T10:33:04;7.37;;;4.97;;
8349;SDS011;60699;48.946;8.412;2022-08-30T10:35:33;6.73;;;4.30;;
8349;SDS011;60699;48.946;8.412;2022-08-30T10:38:05;7.63;;;6.83;;
8349;SDS011;60699;48.946;8.412;2022-08-30T10:40:51;4.57;;;4.17;;
8349;SDS011;60699;48.946;8.412;2022-08-30T10:43:40;5.27;;;4.77;;
8349;SDS011;60699;48.946;8.412;2022-08-30T10:46:10;5.43;;;4.93;;
8349;SDS011;60699;48.946;8.412;2022-08-30T10:48:39;7.20;;;5.10;;
8349;SDS011;60699;48.946;8.412;2022-08-30T10:51:09;6.80;;;4.80;;
8349;SDS011;60699;48.946;8.412;2022-08-30T10:53:38;5.70;;;5.20;;
8349;SDS011;60699;48.946;8.412;2022-08-30T10:56:09;5.90;;;5.33;;
8349;SDS011;60699;48.946;8.412;2022-08-30T10:58:36;4.80;;;4.40;;
8349;SDS011;60699;48.946;8.412;2022-08-30T11:01:07;4.57;;;4.20;;
8349;SDS011;60699;48.946;8.412;2022-08-30T11:03:41;6.77;;;6.07;;
8349;SDS011;60699;48.946;8.412;2022-08-30T11:06:17;5.90;;;5.33;;
8349;SDS011;60699;48.946;8.412;2022-08-30T11:08:53;4.90;;;4.50;;
8349;SDS011;60699;48.946;8.412;2022-08-30T11:11:27;5.10;;;4.60;;
8349;SDS011;60699;48.946;8.412;2022-08-30T11:13:56;5.80;;;5.20;;
8349;SDS011;60699;48.946;8.412;2022-08-30T11:16:32;7.03;;;5.60;;
8349;SDS011;60699;48.946;8.412;2022-08-30T11:19:00;4.73;;;4.03;;
8349;SDS011;60699;48.946;8.412;2022-08-30T11:21:30;5.23;;;4.77;;
8349;SDS011;60699;48.946;8.412;2022-08-30T11:24:00;5.70;;;5.20;;
8349;SDS011;60699;48.946;8.412;2022-08-30T11:29:27;5.10;;;4.70;;
8349;SDS011;60699;48.946;8.412;2022-08-30T11:31:55;5.20;;;4.80;;
8349;SDS011;60699;48.946;8.412;2022-08-30T11:37:04;5.30;;;4.80;;
8349;SDS011;60699;48.946;8.412;2022-08-30T11:39:41;5.20;;;4.80;;
8349;SDS011;60699;48.946;8.412;2022-08-30T11:42:09;4.80;;;4.40;;
8349;SDS011;60699;48.946;8.412;2022-08-30T11:44:38;5.37;;;4.97;;
8349;SDS011;60699;48.946;8.412;2022-08-30T11:49:53;5.40;;;4.73;;
8349;SDS011;60699;48.946;8.412;2022-08-30T11:52:24;4.90;;;4.40;;
8349;SDS011;60699;48.946;8.412;2022-08-30T11:55:03;6.00;;;4.87;;
8349;SDS011;60699;48.946;8.412;2022-08-30T11:57:36;5.30;;;4.90;;
8349;SDS011;60699;48.946;8.412;2022-08-30T12:00:07;6.57;;;4.77;;
8349;SDS011;60699;48.946;8.412;2022-08-30T12:02:40;6.40;;;5.07;;
8349;SDS011;60699;48.946;8.412;2022-08-30T12:05:09;5.10;;;4.60;;
8349;SDS011;60699;48.946;8.412;2022-08-30T12:07:57;8.53;;;5.23;;
8349;SDS011;60699;48.946;8.412;2022-08-30T12:10:34;7.00;;;5.63;;
8349;SDS011;60699;48.946;8.412;2022-08-30T12:13:02;5.20;;;4.73;;
8349;SDS011;60699;48.946;8.412;2022-08-30T12:18:17;8.53;;;5.40;;
8349;SDS011;60699;48.946;8.412;2022-08-30T12:20:55;5.20;;;4.70;;
8349;SDS011;60699;48.946;8.412;2022-08-30T12:23:29;7.23;;;4.97;;
8349;SDS011;60699;48.946;8.412;2022-08-30T12:26:08;4.90;;;4.40;;
8349;SDS011;60699;48.946;8.412;2022-08-30T12:28:35;5.00;;;4.40;;
8349;SDS011;60699;48.946;8.412;2022-08-30T12:31:05;5.00;;;4.50;;
8349;SDS011;60699;48.946;8.412;2022-08-30T12:33:37;4.37;;;3.97;;
8349;SDS011;60699;48.946;8.412;2022-08-30T12:36:05;6.27;;;5.00;;
8349;SDS011;60699;48.946;8.412;2022-08-30T12:38:32;5.30;;;4.80;;
8349;SDS011;60699;48.946;8.412;2022-08-30T12:41:00;5.00;;;4.50;;
8349;SDS011;60699;48.946;8.412;2022-08-30T12:43:30;7.00;;;4.60;;
8349;SDS011;60699;48.946;8.412;2022-08-30T12:45:58;6.13;;;5.47;;
8349;SDS011;60699;48.946;8.412;2022-08-30T12:48:28;5.77;;;5.27;;
8349;SDS011;60699;48.946;8.412;2022-08-30T12:51:01;6.57;;;4.73;;
8349;SDS011;60699;48.946;8.412;2022-08-30T12:53:28;5.47;;;4.97;;
8349;SDS011;60699;48.946;8.412;2022-08-30T12:55:57;4.60;;;4.30;;
8349;SDS011;60699;48.946;8.412;2022-08-30T12:58:35;7.17;;;6.57;;
8349;SDS011;60699;48.946;8.412;2022-08-30T13:01:10;6.10;;;5.27;;
8349;SDS011;60699;48.946;8.412;2022-08-30T13:03:38;5.47;;;4.93;;
8349;SDS011;60699;48.946;8.412;2022-08-30T13:06:07;5.47;;;4.97;;
8349;SDS011;60699;48.946;8.412;2022-08-30T13:08:34;4.93;;;4.50;;
8349;SDS011;60699;48.946;8.412;2022-08-30T13:11:03;6.27;;;5.33;;
8349;SDS011;60699;48.946;8.412;2022-08-30T13:13:32;10.53;;;4.60;;
8349;SDS011;60699;48.946;8.412;2022-08-30T13:18:46;5.30;;;4.90;;
8349;SDS011;60699;48.946;8.412;2022-08-30T13:21:21;7.00;;;4.33;;
8349;SDS011;60699;48.946;8.412;2022-08-30T13:23:49;5.10;;;4.20;;
8349;SDS011;60699;48.946;8.412;2022-08-30T13:26:17;5.67;;;5.10;;
8349;SDS011;60699;48.946;8.412;2022-08-30T13:28:44;4.77;;;4.37;;
8349;SDS011;60699;48.946;8.412;2022-08-30T13:31:12;4.60;;;4.20;;
8349;SDS011;60699;48.946;8.412;2022-08-30T13:33:39;4.13;;;3.83;;
8349;SDS011;60699;48.946;8.412;2022-08-30T13:36:06;5.37;;;4.87;;
8349;SDS011;60699;48.946;8.412;2022-08-30T13:38:34;6.10;;;5.20;;
8349;SDS011;60699;48.946;8.412;2022-08-30T13:41:01;6.07;;;4.17;;
8349;SDS011;60699;48.946;8.412;2022-08-30T13:43:28;6.10;;;4.83;;
8349;SDS011;60699;48.946;8.412;2022-08-30T13:45:55;5.33;;;4.43;;
8349;SDS011;60699;48.946;8.412;2022-08-30T13:48:22;4.27;;;3.97;;
8349;SDS011;60699;48.946;8.412;2022-08-30T13:50:50;6.80;;;5.30;;
8349;SDS011;60699;48.946;8.412;2022-08-30T13:53:19;4.40;;;4.10;;
8349;SDS011;60699;48.946;8.412;2022-08-30T13:55:47;4.40;;;4.10;;
8349;SDS011;60699;48.946;8.412;2022-08-30T13:58:14;7.07;;;4.57;;
8349;SDS011;60699;48.946;8.412;2022-08-30T14:00:41;6.33;;;5.30;;
8349;SDS011;60699;48.946;8.412;2022-08-30T14:03:09;4.30;;;4.00;;
8349;SDS011;60699;48.946;8.412;2022-08-30T14:05:37;4.97;;;4.43;;
8349;SDS011;60699;48.946;8.412;2022-08-30T14:08:04;5.33;;;4.70;;
8349;SDS011;60699;48.946;8.412;2022-08-30T14:10:32;5.37;;;4.87;;
8349;SDS011;60699;48.946;8.412;2022-08-30T14:13:01;5.90;;;5.37;;
8349;SDS011;60699;48.946;8.412;2022-08-30T14:15:29;5.43;;;4.93;;
8349;SDS011;60699;48.946;8.412;2022-08-30T14:17:57;5.43;;;5.00;;
8349;SDS011;60699;48.946;8.412;2022-08-30T14:20:24;5.00;;;4.50;;
8349;SDS011;60699;48.946;8.412;2022-08-30T14:22:51;4.80;;;4.40;;
8349;SDS011;60699;48.946;8.412;2022-08-30T14:25:18;5.23;;;4.73;;
8349;SDS011;60699;48.946;8.412;2022-08-30T14:27:45;4.90;;;4.40;;
8349;SDS011;60699;48.946;8.412;2022-08-30T14:30:13;6.80;;;5.93;;
8349;SDS011;60699;48.946;8.412;2022-08-30T14:32:40;4.87;;;4.47;;
8349;SDS011;60699;48.946;8.412;2022-08-30T14:35:07;5.83;;;5.10;;
8349;SDS011;60699;48.946;8.412;2022-08-30T14:37:34;5.63;;;4.90;;
8349;SDS011;60699;48.946;8.412;2022-08-30T14:40:02;6.60;;;4.37;;
8349;SDS011;60699;48.946;8.412;2022-08-30T14:42:29;5.20;;;4.80;;
8349;SDS011;60699;48.946;8.412;2022-08-30T14:44:56;7.50;;;4.23;;
8349;SDS011;60699;48.946;8.412;2022-08-30T14:47:24;5.63;;;4.67;;
8349;SDS011;60699;48.946;8.412;2022-08-30T14:49:51;5.40;;;4.37;;
8349;SDS011;60699;48.946;8.412;2022-08-30T14:52:22;4.90;;;4.40;;
8349;SDS011;60699;48.946;8.412;2022-08-30T14:54:49;5.20;;;4.70;;
8349;SDS011;60699;48.946;8.412;2022-08-30T14:57:16;4.73;;;4.30;;
8349;SDS011;60699;48.946;8.412;2022-08-30T14:59:43;5.90;;;4.43;;
8349;SDS011;60699;48.946;8.412;2022-08-30T15:02:10;5.23;;;4.73;;
8349;SDS011;60699;48.946;8.412;2022-08-30T15:04:39;4.57;;;4.17;;
8349;SDS011;60699;48.946;8.412;2022-08-30T15:07:06;4.60;;;4.20;;
8349;SDS011;60699;48.946;8.412;2022-08-30T15:09:33;5.13;;;4.50;;
8349;SDS011;60699;48.946;8.412;2022-08-30T15:12:00;5.83;;;5.23;;
8349;SDS011;60699;48.946;8.412;2022-08-30T15:14:29;4.47;;;4.07;;
8349;SDS011;60699;48.946;8.412;2022-08-30T15:16:57;4.67;;;4.27;;
8349;SDS011;60699;48.946;8.412;2022-08-30T15:19:26;6.63;;;4.90;;
8349;SDS011;60699;48.946;8.412;2022-08-30T15:21:57;5.20;;;4.70;;
8349;SDS011;60699;48.946;8.412;2022-08-30T15:24:24;5.00;;;4.60;;